Flight Track Log - Related Links

Times and Time Zones

All times are in EDT time to prevent confusion due to time zone crossing. See the SWA3491 flight status page for this flight to view local times or setup timezone preferences in your user account.

Time Position Orientation Groundspeed Altitude Reporting Facility
EDT Latitude Longitude Course Direction KTS MPH feet Rate Location/Type
Tue 11:20:17 AM 39.1833 -76.7333 172° South 183 211 1,800  Level Potomac TRACON
Tue 11:22:04 AM 39.0958 -76.7175 172° South 240 276 5,400 1,868 Climbing Washington Center
Tue 11:23:04 AM 39.0547 -76.6261 120° Southeast 262 302 7,000 1,934 Climbing Washington Center
Tue 11:24:05 AM 39.0328 -76.5189 105° East 274 315 9,300 1,736 Climbing Washington Center
Tue 11:25:05 AM 39.0356 -76.4039 88° East 286 329 10,500 1,537 Climbing Washington Center
Tue 11:26:06 AM 39.0739 -76.2761 69° East 316 364 12,400 2,218 Climbing Washington Center
Tue 11:27:04 AM 39.1206 -76.1214 69° East 354 407 14,900 2,319 Climbing Washington Center
Tue 11:28:05 AM 39.1608 -75.9825 69° East 396 456 17,000 1,967 Climbing Washington Center
Tue 11:29:06 AM 39.2172 -75.8489 61° Northeast 416 479 18,900 1,672 Climbing Washington Center
Tue 11:30:07 AM 39.2989 -75.7444 45° Northeast 410 472 20,400 1,525 Climbing Washington Center
Tue 11:31:04 AM 39.3864 -75.6372 43° Northeast 415 478 21,900 1,487 Climbing Washington Center
Tue 11:32:04 AM 39.4844 -75.5486 35° Northeast 415 478 23,300 1,537 Climbing Washington Center
Tue 11:33:05 AM 39.5842 -75.4622 34° Northeast 428 493 25,000 1,488 Climbing Washington Center
Tue 11:34:05 AM 39.6822 -75.3786 33° Northeast 428 493 26,300 1,085 Climbing Washington Center
Tue 11:34:39 AM 39.7417 -75.3336 30° Northeast 439 505 26,700 1,085 Climbing New York Center
Tue 11:35:39 AM 39.8367 -75.2531 33° Northeast 431 496 28,000 1,488 Climbing New York Center
Tue 11:36:40 AM 39.9464 -75.1628 32° Northeast 426 490 29,700 1,289 Climbing New York Center
Tue 11:37:40 AM 40.0386 -75.0872 32° Northeast 426 490 30,600 1,017 Climbing New York Center
Tue 11:38:38 AM 40.1397 -75.0039 32° Northeast 426 490 31,700 1,059 Climbing New York Center
Tue 11:39:39 AM 40.2406 -74.9203 32° Northeast 426 490 32,700 892 Climbing New York Center
Tue 11:41:53 AM 40.4706 -74.8139 19° North 401 461 34,600 708 Climbing Boston Center
Tue 11:42:54 AM 40.5733 -74.7706 18° North 391 450 35,000 198 Climbing Boston Center
Tue 11:43:54 AM 40.6767 -74.7272 18° North 391 450 35,000  Level Boston Center
Tue 11:44:57 AM 40.7792 -74.6817 19° North 390 449 35,000  Level Boston Center
Tue 11:45:58 AM 40.9025 -74.6297 18° North 390 449 35,000  Level Boston Center
Tue 11:47:00 AM 41.0061 -74.5839 18° North 390 449 35,000  Level Boston Center
Tue 11:48:00 AM 41.1094 -74.5375 19° North 391 450 35,000  Level Boston Center
Tue 11:49:01 AM 41.2136 -74.4922 18° North 393 452 35,000  Level Boston Center
Tue 11:50:04 AM 41.3211 -74.4456 18° North 393 452 35,000  Level Boston Center
Tue 11:51:05 AM 41.4239 -74.3997 18° North 392 451 35,000  Level Boston Center
Tue 11:52:08 AM 41.5275 -74.3547 18° North 392 451 35,000 -387 Level Boston Center
Tue 11:53:09 AM 41.6319 -74.3092 18° North 392 451 34,200 -836 Descending Boston Center
Tue 11:54:10 AM 41.7364 -74.2614 19° North 392 451 33,300 -942 Descending Boston Center
Tue 11:55:10 AM 41.8472 -74.2122 18° North 392 451 32,300 -919 Descending Boston Center
Tue 11:56:14 AM 41.9514 -74.1664 18° North 393 452 31,400 -919 Descending Boston Center
Tue 11:57:14 AM 42.0556 -74.1175 19° North 393 452 30,400 -992 Descending Boston Center
Tue 11:58:15 AM 42.1322 -73.9856 52° Northeast 447 514 29,400 -942 Descending Boston Center
Tue 11:59:15 AM 42.1953 -73.8267 62° Northeast 474 545 28,500 -976 Descending Boston Center
Tue 12:00:18 PM 42.2669 -73.6486 61° Northeast 478 550 27,400 -1,024 Descending Boston Center
Tue 12:01:18 PM 42.3350 -73.4794 61° Northeast 478 550 26,400 -968 Descending Boston Center
Tue 12:02:22 PM 42.3961 -73.3233 62° Northeast 473 544 25,400 -1,008 Descending Boston Center
Tue 12:03:23 PM 42.4544 -73.1711 63° Northeast 459 528 24,300 -1,082 Descending Boston Center
Tue 12:04:24 PM 42.5194 -73.0086 61° Northeast 451 519 23,200 -1,041 Descending Boston Center
Tue 12:05:24 PM 42.5753 -72.8558 64° Northeast 444 511 22,200 -1,161 Descending Boston Center
Tue 12:06:28 PM 42.6161 -72.6992 70° East 443 510 20,800 -1,887 Descending Boston Center
Tue 12:07:28 PM 42.6561 -72.5514 70° East 440 506 18,300 -2,579 Descending Boston Center
Tue 12:08:29 PM 42.6944 -72.4058 70° East 418 481 15,600 -2,613 Descending Boston Center
Tue 12:09:32 PM 42.7372 -72.2525 69° East 395 455 12,900 -2,371 Descending Boston Center
Tue 12:10:33 PM 42.7728 -72.1086 71° East 374 430 10,700 -1,388 Descending Boston Center
Tue 12:11:33 PM 42.8008 -71.9917 72° East 328 377 10,100 -1,289 Descending Boston Center
Tue 12:12:34 PM 42.8006 -71.8786 90° East 303 349 8,100 -2,016 Descending Boston Center
Tue 12:13:38 PM 42.7989 -71.7625 91° East 290 334 5,900 -1,790 Descending Boston Center
Tue 12:14:38 PM 42.7889 -71.6567 97° East 286 329 4,400 -942 Descending Boston Center
Tue 12:15:39 PM 42.7808 -71.5561 96° East 270 311 4,000 -532 Descending Boston Center
Tue 12:16:42 PM 42.7858 -71.4611 86° East 238 274 3,300 -726 Descending Boston Center
Tue 12:17:43 PM 42.8111 -71.3975 62° Northeast 203 234 2,500 -836 Descending Boston Center
Tue 12:18:44 PM 42.8517 -71.3856 12° North 151 174 1,600 -694 Descending Boston Center
Tue 12:19:44 PM 42.8856 -71.4058 336° Northwest 134 154 1,100 -590 Descending Boston Center
Tue 12:20:46 PM 42.9181 -71.4258 336° Northwest 134 154 400 -677 Descending Boston Center
Tue 12:22:00 PM 42.9167 -71.4333 316° Northwest  Level FlightAware Approximate

Login

Don't have an account? Register now (free) for customized features, flight alerts, and more!